createdAt,value
2019-05-23T00:00:28.330Z,57.23
2019-05-23T00:03:26.105Z,60.77
2019-05-23T00:06:34.319Z,62.70
2019-05-23T00:09:25.124Z,55.66
2019-05-23T00:12:15.818Z,57.53
2019-05-23T00:14:56.382Z,61.62
2019-05-23T00:17:32.035Z,62.24
2019-05-23T00:20:08.401Z,55.42
2019-05-23T00:22:44.250Z,56.76
2019-05-23T00:25:18.053Z,60.42
2019-05-23T00:27:53.457Z,63.25
2019-05-23T00:30:37.068Z,59.62
2019-05-23T00:33:11.768Z,56.65
2019-05-23T00:35:44.845Z,59.92
2019-05-23T00:38:18.128Z,62.69
2019-05-23T00:40:53.406Z,60.70
2019-05-23T00:43:28.618Z,55.22
2019-05-23T00:46:01.417Z,57.94
2019-05-23T00:48:35.515Z,61.43
2019-05-23T00:51:07.805Z,64.36
2019-05-23T00:53:40.899Z,59.13
2019-05-23T00:56:14.165Z,56.91
2019-05-23T00:58:47.096Z,60.42
2019-05-23T01:01:20.368Z,63.05
2019-05-23T01:03:55.579Z,61.66
2019-05-23T01:06:29.795Z,54.39
2019-05-23T01:09:05.912Z,57.68
2019-05-23T01:11:40.996Z,61.19
2019-05-23T01:14:13.792Z,63.74
2019-05-23T01:16:46.665Z,57.59
2019-05-23T01:19:20.568Z,56.46
2019-05-23T01:21:59.543Z,59.62
2019-05-23T01:24:43.944Z,63.22
2019-05-23T01:27:17.627Z,59.47
2019-05-23T01:29:51.799Z,56.36
2019-05-23T01:32:46.057Z,59.74
2019-05-23T01:35:20.164Z,63.28
2019-05-23T01:37:53.665Z,61.25
2019-05-23T01:40:26.447Z,55.19
2019-05-23T01:42:59.230Z,57.41
2019-05-23T01:45:34.125Z,61.69
2019-05-23T01:48:06.744Z,63.87
2019-05-23T01:50:40.850Z,57.10
2019-05-23T01:53:16.806Z,56.32
2019-05-23T01:55:51.240Z,60.03
2019-05-23T01:58:25.441Z,61.81
2019-05-23T02:00:58.519Z,61.95
2019-05-23T02:03:32.541Z,54.40
2019-05-23T02:06:05.529Z,55.83
2019-05-23T02:08:38.622Z,59.77
2019-05-23T02:11:13.138Z,62.35
2019-05-23T02:13:45.807Z,61.38
2019-05-23T02:16:20.346Z,54.35
2019-05-23T02:18:53.427Z,57.33
2019-05-23T02:21:29.301Z,60.89
2019-05-23T02:24:03.594Z,63.52
2019-05-23T02:26:37.814Z,58.09
2019-05-23T02:29:10.995Z,56.14
2019-05-23T02:31:44.332Z,58.83
2019-05-23T02:34:17.673Z,61.85
2019-05-23T02:36:52.120Z,64.37
2019-05-23T02:39:45.270Z,59.76
2019-05-23T02:42:22.072Z,56.76
2019-05-23T02:44:55.636Z,59.49
2019-05-23T02:47:30.885Z,61.81
2019-05-23T02:50:05.764Z,61.65
2019-05-23T02:52:47.418Z,53.94
2019-05-23T02:55:24.362Z,57.08
2019-05-23T02:58:01.192Z,60.79
2019-05-23T03:00:54.688Z,63.43
2019-05-23T03:03:30.890Z,57.99
2019-05-23T03:06:05.040Z,55.79
2019-05-23T03:08:37.678Z,58.59
2019-05-23T03:11:27.696Z,61.93
2019-05-23T03:14:00.456Z,63.42
2019-05-23T03:16:36.259Z,56.37
2019-05-23T03:19:22.913Z,57.22
2019-05-23T03:22:01.737Z,60.56
2019-05-23T03:24:35.960Z,63.39
2019-05-23T03:27:11.023Z,58.99
2019-05-23T03:29:44.680Z,56.04
2019-05-23T03:32:26.276Z,59.27
2019-05-23T03:35:00.491Z,61.48
2019-05-23T03:37:32.726Z,64.34
2019-05-23T03:40:08.899Z,58.45
2019-05-23T03:42:43.138Z,55.42
2019-05-23T03:45:17.759Z,58.02
2019-05-23T03:47:50.339Z,60.81
2019-05-23T03:50:23.966Z,63.11
2019-05-23T03:52:57.742Z,60.33
2019-05-23T03:55:33.211Z,54.17
2019-05-23T03:58:06.585Z,56.39
2019-05-23T04:00:41.715Z,59.28
2019-05-23T04:03:15.318Z,62.10
2019-05-23T04:05:48.762Z,61.93
2019-05-23T04:08:21.905Z,54.11
2019-05-23T04:10:56.231Z,55.07
2019-05-23T04:13:29.004Z,58.38
2019-05-23T04:16:01.282Z,60.83
2019-05-23T04:18:34.466Z,62.37
2019-05-23T04:21:07.552Z,62.51
2019-05-23T04:23:40.384Z,55.64
2019-05-23T04:26:13.349Z,57.69
2019-05-23T04:28:45.996Z,60.32
2019-05-23T04:31:19.190Z,62.32
2019-05-23T04:33:52.387Z,61.74
2019-05-23T04:36:25.159Z,54.62
2019-05-23T04:38:58.351Z,55.80
2019-05-23T04:41:31.140Z,59.08
2019-05-23T04:44:04.333Z,61.04
2019-05-23T04:46:38.239Z,63.44
2019-05-23T04:49:11.770Z,56.79
2019-05-23T04:51:45.842Z,55.37
2019-05-23T04:54:18.984Z,58.27
2019-05-23T04:56:51.926Z,60.98
2019-05-23T04:59:25.931Z,61.77
2019-05-23T05:02:00.558Z,62.30
2019-05-23T05:04:34.159Z,54.79
2019-05-23T05:07:08.216Z,56.22
2019-05-23T05:09:42.079Z,58.73
2019-05-23T05:12:15.103Z,61.13
2019-05-23T05:14:48.150Z,62.32
2019-05-23T05:17:20.376Z,62.37
2019-05-23T05:19:53.508Z,54.11
2019-05-23T05:22:28.034Z,53.57
2019-05-23T05:25:00.923Z,56.31
2019-05-23T05:27:33.714Z,58.64
2019-05-23T05:30:08.731Z,61.12
2019-05-23T05:32:45.287Z,62.04
2019-05-23T05:35:16.687Z,62.61
2019-05-23T05:37:48.882Z,54.01
2019-05-23T05:40:23.538Z,53.85
2019-05-23T05:42:56.846Z,56.45
2019-05-23T05:45:29.625Z,59.68
2019-05-23T05:48:02.443Z,60.70
2019-05-23T05:50:35.097Z,62.41
2019-05-23T05:53:08.269Z,62.24
2019-05-23T05:55:40.925Z,53.94
2019-05-23T05:58:13.523Z,55.53
2019-05-23T06:00:48.185Z,57.87
2019-05-23T06:03:20.920Z,60.26
2019-05-23T06:06:07.229Z,61.70
2019-05-23T06:08:42.367Z,62.16
2019-05-23T06:11:15.969Z,54.65
2019-05-23T06:13:48.660Z,55.26
2019-05-23T06:16:21.730Z,57.88
2019-05-23T06:18:55.242Z,59.38
2019-05-23T06:21:29.453Z,60.90
2019-05-23T06:24:02.650Z,62.71
2019-05-23T06:26:35.622Z,60.03
2019-05-23T06:29:08.371Z,53.99
2019-05-23T06:31:43.954Z,56.11
2019-05-23T06:34:17.144Z,58.39
2019-05-23T06:36:52.860Z,60.24
2019-05-23T06:39:26.287Z,61.32
2019-05-23T06:41:58.972Z,64.10
2019-05-23T06:44:32.430Z,57.82
2019-05-23T06:47:07.100Z,53.39
2019-05-23T06:49:39.772Z,55.94
2019-05-23T06:52:12.911Z,58.85
2019-05-23T06:54:45.376Z,60.88
2019-05-23T06:57:18.626Z,62.08
2019-05-23T06:59:51.410Z,64.24
2019-05-23T07:02:32.247Z,58.50
2019-05-23T07:05:06.086Z,54.77
2019-05-23T07:07:39.995Z,56.93
2019-05-23T07:10:13.097Z,59.24
2019-05-23T07:12:46.787Z,60.90
2019-05-23T07:15:20.036Z,62.79
2019-05-23T07:17:53.068Z,60.69
2019-05-23T07:20:27.073Z,53.80
2019-05-23T07:23:00.802Z,55.41
2019-05-23T07:25:34.997Z,57.16
2019-05-23T07:28:07.676Z,59.14
2019-05-23T07:30:40.135Z,60.47
2019-05-23T07:33:14.681Z,61.25
2019-05-23T07:35:47.999Z,62.96
2019-05-23T07:38:20.856Z,53.55
2019-05-23T07:40:53.485Z,53.16
2019-05-23T07:43:26.617Z,55.98
2019-05-23T07:46:00.110Z,58.29
2019-05-23T07:48:33.304Z,59.64
2019-05-23T07:51:06.043Z,61.57
2019-05-23T07:53:44.213Z,62.02
2019-05-23T07:56:24.758Z,63.01
2019-05-23T07:58:57.542Z,54.19
2019-05-23T08:01:33.400Z,54.03
2019-05-23T08:04:20.514Z,56.66
2019-05-23T08:06:40.590Z,58.05
2019-05-23T08:09:14.560Z,59.94
2019-05-23T08:11:47.285Z,60.91
2019-05-23T08:14:19.961Z,61.95
2019-05-23T08:16:53.914Z,62.95
2019-05-23T08:19:26.652Z,55.16
2019-05-23T08:21:59.236Z,54.64
2019-05-23T08:24:32.828Z,57.19
2019-05-23T08:27:06.949Z,58.87
2019-05-23T08:29:40.753Z,60.52
2019-05-23T08:32:13.423Z,61.40
2019-05-23T08:34:46.122Z,63.26
2019-05-23T08:37:19.205Z,56.98
2019-05-23T08:39:52.198Z,55.36
2019-05-23T08:42:25.890Z,57.27
2019-05-23T08:44:58.896Z,58.74
2019-05-23T08:47:31.655Z,59.96
2019-05-23T08:50:05.868Z,60.95
2019-05-23T08:52:38.096Z,61.74
2019-05-23T08:55:26.688Z,62.46
2019-05-23T08:57:59.834Z,55.00
2019-05-23T09:00:34.510Z,57.02
2019-05-23T09:03:07.392Z,58.40
2019-05-23T09:05:41.758Z,59.67
2019-05-23T09:08:16.988Z,60.34
2019-05-23T09:10:51.768Z,60.92
2019-05-23T09:13:24.555Z,61.19
2019-05-23T09:15:57.959Z,61.28
2019-05-23T09:18:31.866Z,61.42
2019-05-23T09:21:04.743Z,62.10
2019-05-23T09:23:37.110Z,63.99
2019-05-23T09:26:09.405Z,55.01
2019-05-23T09:28:42.269Z,52.90
2019-05-23T09:31:16.389Z,55.53
2019-05-23T09:33:48.958Z,55.00
2019-05-23T09:36:21.840Z,54.96
2019-05-23T09:38:54.539Z,56.15
2019-05-23T09:41:27.200Z,57.27
2019-05-23T09:43:59.975Z,56.74
2019-05-23T09:46:32.814Z,57.46
2019-05-23T09:49:05.661Z,56.84
2019-05-23T09:51:38.735Z,57.47
2019-05-23T09:54:11.868Z,56.66
2019-05-23T09:56:44.819Z,56.36
2019-05-23T09:59:17.674Z,56.34
2019-05-23T10:01:51.121Z,57.36
2019-05-23T10:04:23.992Z,57.60
2019-05-23T10:06:56.764Z,56.80
2019-05-23T10:09:29.486Z,56.79
2019-05-23T10:12:02.321Z,56.85
2019-05-23T10:14:36.362Z,56.62
2019-05-23T10:17:09.416Z,57.55
2019-05-23T10:19:42.304Z,57.48
2019-05-23T10:22:15.287Z,57.73
2019-05-23T10:24:47.874Z,57.99
2019-05-23T10:27:21.076Z,58.26
2019-05-23T10:29:53.795Z,56.35
2019-05-23T10:32:27.644Z,57.86
2019-05-23T10:35:00.219Z,58.14
2019-05-23T10:37:32.899Z,57.83
2019-05-23T10:40:06.607Z,58.31
2019-05-23T10:42:41.849Z,58.02
2019-05-23T10:45:15.657Z,56.75
2019-05-23T10:47:48.740Z,57.72
2019-05-23T10:50:22.134Z,56.98
2019-05-23T10:52:54.811Z,56.95
2019-05-23T10:55:27.415Z,56.00
2019-05-23T10:58:00.114Z,56.41
2019-05-23T11:00:33.462Z,54.58
2019-05-23T11:03:07.096Z,54.36
2019-05-23T11:05:39.950Z,54.12
2019-05-23T11:08:13.332Z,52.72
2019-05-23T11:10:47.009Z,54.29
2019-05-23T11:13:20.249Z,53.75
2019-05-23T11:15:53.951Z,53.53
2019-05-23T11:18:26.632Z,52.63
2019-05-23T11:20:59.205Z,52.59
2019-05-23T11:23:48.775Z,53.17
2019-05-23T11:26:21.669Z,53.46
2019-05-23T11:28:54.443Z,53.29
2019-05-23T11:31:27.644Z,53.03
2019-05-23T11:34:00.305Z,52.76
2019-05-23T11:36:36.159Z,52.65
2019-05-23T11:39:09.909Z,54.04
2019-05-23T11:41:42.649Z,53.65
2019-05-23T11:44:15.330Z,52.98
2019-05-23T11:46:48.311Z,53.89
2019-05-23T11:49:21.510Z,54.34
2019-05-23T11:51:54.180Z,54.32
2019-05-23T11:54:27.784Z,52.18
2019-05-23T11:57:01.076Z,52.79
2019-05-23T11:59:33.350Z,52.57
2019-05-23T12:02:08.289Z,52.74
2019-05-23T12:04:41.163Z,51.13
2019-05-23T12:07:19.384Z,51.15
2019-05-23T12:09:52.052Z,51.76
2019-05-23T12:12:25.149Z,51.15
2019-05-23T12:14:58.738Z,50.36
2019-05-23T12:17:34.986Z,50.55
2019-05-23T12:20:10.655Z,50.90
2019-05-23T12:22:43.616Z,51.48
2019-05-23T12:25:22.790Z,49.45
2019-05-23T12:27:53.461Z,51.23
2019-05-23T12:30:27.164Z,51.61
2019-05-23T12:32:59.791Z,51.73
2019-05-23T12:35:32.461Z,51.60
2019-05-23T12:38:05.656Z,51.21
2019-05-23T12:40:38.336Z,51.08
2019-05-23T12:43:10.918Z,50.54
2019-05-23T12:45:44.253Z,50.24
2019-05-23T12:48:25.696Z,49.43
2019-05-23T12:51:02.528Z,49.20
2019-05-23T12:53:34.876Z,49.09
2019-05-23T12:56:07.732Z,50.21
2019-05-23T12:58:40.407Z,49.25
2019-05-23T13:01:15.863Z,49.45
2019-05-23T13:03:48.531Z,48.82
2019-05-23T13:06:21.306Z,47.98
2019-05-23T13:08:53.982Z,47.35
2019-05-23T13:11:26.665Z,45.04
2019-05-23T13:13:59.337Z,43.73
2019-05-23T13:16:32.841Z,45.56
2019-05-23T13:19:06.340Z,46.46
2019-05-23T13:21:39.225Z,46.49
2019-05-23T13:24:13.444Z,46.20
2019-05-23T13:26:46.531Z,45.91
2019-05-23T13:29:24.978Z,45.72
2019-05-23T13:31:57.827Z,45.69
2019-05-23T13:34:30.401Z,45.94
2019-05-23T13:37:04.457Z,46.03
2019-05-23T13:39:36.899Z,46.30
2019-05-23T13:42:09.562Z,46.67
2019-05-23T13:44:42.652Z,47.23
2019-05-23T13:47:15.440Z,47.13
2019-05-23T13:49:49.343Z,45.73
2019-05-23T13:52:22.023Z,46.28
2019-05-23T13:54:54.629Z,46.21
2019-05-23T13:57:27.538Z,45.87
2019-05-23T14:00:00.163Z,46.47
2019-05-23T14:02:33.354Z,46.27
2019-05-23T14:05:10.527Z,46.41
2019-05-23T14:07:43.243Z,46.54
2019-05-23T14:10:16.244Z,46.84
2019-05-23T14:12:49.392Z,46.96
2019-05-23T14:15:32.423Z,47.03
2019-05-23T14:18:05.183Z,46.78
2019-05-23T14:20:38.583Z,46.03
2019-05-23T14:23:14.092Z,45.13
2019-05-23T14:25:49.702Z,46.72
2019-05-23T14:28:24.006Z,46.97
2019-05-23T14:30:58.224Z,47.00
2019-05-23T14:33:35.408Z,46.97
2019-05-23T14:36:31.717Z,46.23
2019-05-23T14:39:02.060Z,46.80
2019-05-23T14:41:46.628Z,46.98
2019-05-23T14:44:19.917Z,46.10
2019-05-23T14:46:59.964Z,46.08
2019-05-23T14:49:40.321Z,45.83
2019-05-23T14:52:20.147Z,45.67
2019-05-23T14:54:54.689Z,45.91
2019-05-23T14:57:27.529Z,45.85
2019-05-23T15:00:00.162Z,46.07
2019-05-23T15:02:34.885Z,46.09
2019-05-23T15:05:12.265Z,46.40
2019-05-23T15:07:44.843Z,46.21
2019-05-23T15:10:20.188Z,45.77
2019-05-23T15:12:52.624Z,45.32
2019-05-23T15:15:26.365Z,45.14
2019-05-23T15:18:02.619Z,45.12
2019-05-23T15:20:36.845Z,43.92
2019-05-23T15:23:13.925Z,44.26
2019-05-23T15:25:49.473Z,45.04
2019-05-23T15:28:22.151Z,45.38
2019-05-23T15:30:54.837Z,45.51
2019-05-23T15:33:28.094Z,46.21
2019-05-23T15:36:01.030Z,45.82
2019-05-23T15:38:39.191Z,45.93
2019-05-23T15:41:15.777Z,45.73
2019-05-23T15:43:48.986Z,46.19
2019-05-23T15:46:21.656Z,46.22
2019-05-23T15:48:56.013Z,46.74
2019-05-23T15:51:36.263Z,47.07
2019-05-23T15:54:22.403Z,46.62
2019-05-23T15:57:04.263Z,47.90
2019-05-23T15:59:40.907Z,47.77
2019-05-23T16:02:26.980Z,47.50
2019-05-23T16:05:01.599Z,47.28
2019-05-23T16:07:36.035Z,47.51
2019-05-23T16:10:12.101Z,47.90
2019-05-23T16:12:44.773Z,48.68
2019-05-23T16:15:18.779Z,48.42
2019-05-23T16:17:53.319Z,48.02
2019-05-23T16:20:28.206Z,47.62
2019-05-23T16:23:02.668Z,47.58
2019-05-23T16:25:37.642Z,47.66
2019-05-23T16:28:13.816Z,47.11
2019-05-23T16:30:48.114Z,47.95
2019-05-23T16:33:21.837Z,48.34
2019-05-23T16:35:57.446Z,48.90
2019-05-23T16:38:33.724Z,49.20
2019-05-23T16:41:11.047Z,50.15
2019-05-23T16:43:41.704Z,49.93
2019-05-23T16:46:14.594Z,49.64
2019-05-23T16:48:47.477Z,49.39
2019-05-23T16:51:20.156Z,48.89
2019-05-23T16:53:53.559Z,49.23
2019-05-23T16:56:30.615Z,49.12
2019-05-23T16:59:20.213Z,49.42
2019-05-23T17:02:05.965Z,49.10
2019-05-23T17:04:59.454Z,48.54
2019-05-23T17:07:41.183Z,48.93
2019-05-23T17:10:22.024Z,49.23
2019-05-23T17:12:56.382Z,49.51
2019-05-23T17:15:46.392Z,50.38
2019-05-23T17:18:26.678Z,50.73
2019-05-23T17:21:10.523Z,50.64
2019-05-23T17:23:47.713Z,50.60
2019-05-23T17:26:32.263Z,51.35
2019-05-23T17:29:07.218Z,51.91
2019-05-23T17:31:41.611Z,51.29
2019-05-23T17:34:14.193Z,51.88
2019-05-23T17:36:46.898Z,51.72
2019-05-23T17:39:20.889Z,51.77
2019-05-23T17:41:53.862Z,52.28
2019-05-23T17:44:27.065Z,51.75
2019-05-23T17:46:59.343Z,52.16
2019-05-23T17:49:33.494Z,52.11
2019-05-23T17:52:06.436Z,52.20
2019-05-23T17:54:39.006Z,52.31
2019-05-23T17:57:12.396Z,52.99
2019-05-23T17:59:44.975Z,52.84
2019-05-23T18:02:19.198Z,53.45
2019-05-23T18:04:52.185Z,53.58
2019-05-23T18:07:25.581Z,54.11
2019-05-23T18:09:57.903Z,54.70
2019-05-23T18:12:31.140Z,54.78
2019-05-23T18:15:04.123Z,55.52
2019-05-23T18:17:38.442Z,55.74
2019-05-23T18:20:13.463Z,56.45
2019-05-23T18:22:46.225Z,56.37
2019-05-23T18:25:20.374Z,57.05
2019-05-23T18:27:53.666Z,57.87
2019-05-23T18:30:33.517Z,58.13
2019-05-23T18:33:07.470Z,58.62
2019-05-23T18:35:42.027Z,59.31
2019-05-23T18:38:14.721Z,59.87
2019-05-23T18:41:01.720Z,59.89
2019-05-23T18:43:25.456Z,59.37
2019-05-23T18:46:00.135Z,59.65
2019-05-23T18:48:33.538Z,59.75
2019-05-23T18:51:06.890Z,60.04
2019-05-23T18:53:41.271Z,59.53
2019-05-23T18:56:22.283Z,59.45
2019-05-23T18:58:57.156Z,59.35
2019-05-23T19:01:30.441Z,58.93
2019-05-23T19:04:03.178Z,58.99
2019-05-23T19:06:36.717Z,58.74
2019-05-23T19:09:13.006Z,58.63
2019-05-23T19:11:45.666Z,58.67
2019-05-23T19:14:18.379Z,58.63
2019-05-23T19:16:51.436Z,58.61
2019-05-23T19:19:24.382Z,58.61
2019-05-23T19:21:57.566Z,59.78
2019-05-23T19:24:31.888Z,60.47
2019-05-23T19:27:04.871Z,61.17
2019-05-23T19:29:38.272Z,61.87
2019-05-23T19:32:11.775Z,63.70
2019-05-23T19:34:45.202Z,55.22
2019-05-23T19:37:17.525Z,51.36
2019-05-23T19:39:50.327Z,52.24
2019-05-23T19:42:22.907Z,53.23
2019-05-23T19:44:55.589Z,54.10
2019-05-23T19:47:28.766Z,54.81
2019-05-23T19:50:01.449Z,55.82
2019-05-23T19:52:35.667Z,56.17
2019-05-23T19:55:09.679Z,56.93
2019-05-23T19:57:43.175Z,57.85
2019-05-23T20:00:18.105Z,58.63
2019-05-23T20:02:53.199Z,58.40
2019-05-23T20:05:27.653Z,59.07
2019-05-23T20:08:00.361Z,59.15
2019-05-23T20:10:34.341Z,59.79
2019-05-23T20:13:07.601Z,60.16
2019-05-23T20:15:45.059Z,60.85
2019-05-23T20:18:15.319Z,61.16
2019-05-23T20:20:48.032Z,61.46
2019-05-23T20:23:20.610Z,61.61
2019-05-23T20:25:53.643Z,62.34
2019-05-23T20:28:27.602Z,63.84
2019-05-23T20:31:00.712Z,54.46
2019-05-23T20:33:33.588Z,51.89
2019-05-23T20:36:11.956Z,53.86
2019-05-23T20:38:42.521Z,55.32
2019-05-23T20:41:15.204Z,56.67
2019-05-23T20:43:47.419Z,57.72
2019-05-23T20:46:20.356Z,58.15
2019-05-23T20:48:52.945Z,59.19
2019-05-23T20:51:25.719Z,58.99
2019-05-23T20:53:58.398Z,59.41
2019-05-23T20:56:31.803Z,59.60
2019-05-23T20:59:04.984Z,60.38
2019-05-23T21:01:39.301Z,60.66
2019-05-23T21:04:12.281Z,62.05
2019-05-23T21:06:44.666Z,64.93
2019-05-23T21:09:17.333Z,55.86
2019-05-23T21:11:50.055Z,52.74
2019-05-23T21:14:22.690Z,54.64
2019-05-23T21:16:55.480Z,56.49
2019-05-23T21:19:28.156Z,57.94
2019-05-23T21:22:00.839Z,58.84
2019-05-23T21:24:34.848Z,59.88
2019-05-23T21:27:07.723Z,60.79
2019-05-23T21:29:40.615Z,61.51
2019-05-23T21:32:13.596Z,62.43
2019-05-23T21:34:46.173Z,64.25
2019-05-23T21:37:19.984Z,54.86
2019-05-23T21:39:52.657Z,51.94
2019-05-23T21:42:25.644Z,53.98
2019-05-23T21:44:57.911Z,55.28
2019-05-23T21:47:30.209Z,57.00
2019-05-23T21:50:02.848Z,58.98
2019-05-23T21:52:35.548Z,60.32
2019-05-23T21:55:08.638Z,61.39
2019-05-23T21:57:41.318Z,62.32
2019-05-23T22:00:17.078Z,64.55
2019-05-23T22:02:52.045Z,55.98
2019-05-23T22:05:25.388Z,53.55
2019-05-23T22:07:58.167Z,55.59
2019-05-23T22:10:30.847Z,57.33
2019-05-23T22:13:04.870Z,58.34
2019-05-23T22:15:38.880Z,59.03
2019-05-23T22:18:11.563Z,60.00
2019-05-23T22:20:44.123Z,60.84
2019-05-23T22:23:17.218Z,62.52
2019-05-23T22:25:49.440Z,62.20
2019-05-23T22:28:21.733Z,53.70
2019-05-23T22:30:53.961Z,53.20
2019-05-23T22:33:28.244Z,55.37
2019-05-23T22:36:01.543Z,56.95
2019-05-23T22:38:35.539Z,57.96
2019-05-23T22:41:08.217Z,59.10
2019-05-23T22:43:41.009Z,59.86
2019-05-23T22:46:13.733Z,60.94
2019-05-23T22:48:46.519Z,61.62
2019-05-23T22:51:19.446Z,64.21
2019-05-23T22:53:52.337Z,55.76
2019-05-23T22:56:25.014Z,52.12
2019-05-23T22:58:57.650Z,53.34
2019-05-23T23:01:31.711Z,55.03
2019-05-23T23:04:04.388Z,56.74
2019-05-23T23:06:37.364Z,57.50
2019-05-23T23:09:10.260Z,58.79
2019-05-23T23:11:43.143Z,59.69
2019-05-23T23:14:15.914Z,60.87
2019-05-23T23:16:49.314Z,61.41
2019-05-23T23:19:22.305Z,61.81
2019-05-23T23:21:54.733Z,64.46
2019-05-23T23:24:27.453Z,55.40
2019-05-23T23:27:00.131Z,52.00
2019-05-23T23:29:32.932Z,54.01
2019-05-23T23:32:05.681Z,55.59
2019-05-23T23:34:39.814Z,56.82
2019-05-23T23:37:12.793Z,57.71
2019-05-23T23:39:45.806Z,60.87
2019-05-23T23:42:18.562Z,60.66
2019-05-23T23:44:50.321Z,61.82
2019-05-23T23:47:40.204Z,63.90
2019-05-23T23:50:30.001Z,53.85
2019-05-23T23:53:20.485Z,53.73
2019-05-23T23:56:11.385Z,55.69
2019-05-23T23:58:43.146Z,57.78
